sensor_id;sensor_type;location;lat;lon;timestamp;P1;durP1;ratioP1;P2;durP2;ratioP2
17614;SDS011;8926;49.720;6.576;2023-08-17T00:01:02;1.63;;;1.20;;
17614;SDS011;8926;49.720;6.576;2023-08-17T00:03:27;0.80;;;0.80;;
17614;SDS011;8926;49.720;6.576;2023-08-17T00:05:53;1.70;;;1.10;;
17614;SDS011;8926;49.720;6.576;2023-08-17T00:08:18;1.20;;;1.20;;
17614;SDS011;8926;49.720;6.576;2023-08-17T00:10:43;1.70;;;1.60;;
17614;SDS011;8926;49.720;6.576;2023-08-17T00:13:09;1.00;;;1.00;;
17614;SDS011;8926;49.720;6.576;2023-08-17T00:15:34;1.40;;;1.30;;
17614;SDS011;8926;49.720;6.576;2023-08-17T00:17:59;1.43;;;1.33;;
17614;SDS011;8926;49.720;6.576;2023-08-17T00:20:25;1.27;;;1.27;;
17614;SDS011;8926;49.720;6.576;2023-08-17T00:22:50;1.30;;;1.23;;
17614;SDS011;8926;49.720;6.576;2023-08-17T00:25:15;1.40;;;1.30;;
17614;SDS011;8926;49.720;6.576;2023-08-17T00:27:40;2.07;;;1.60;;
17614;SDS011;8926;49.720;6.576;2023-08-17T00:30:06;1.97;;;1.87;;
17614;SDS011;8926;49.720;6.576;2023-08-17T00:32:32;2.10;;;2.00;;
17614;SDS011;8926;49.720;6.576;2023-08-17T00:34:57;1.90;;;1.80;;
17614;SDS011;8926;49.720;6.576;2023-08-17T00:37:22;1.47;;;1.43;;
17614;SDS011;8926;49.720;6.576;2023-08-17T00:39:48;1.90;;;1.80;;
17614;SDS011;8926;49.720;6.576;2023-08-17T00:42:13;1.73;;;1.63;;
17614;SDS011;8926;49.720;6.576;2023-08-17T00:44:38;1.60;;;1.50;;
17614;SDS011;8926;49.720;6.576;2023-08-17T00:47:04;1.60;;;1.50;;
17614;SDS011;8926;49.720;6.576;2023-08-17T00:49:29;1.60;;;1.50;;
17614;SDS011;8926;49.720;6.576;2023-08-17T00:51:55;1.10;;;1.10;;
17614;SDS011;8926;49.720;6.576;2023-08-17T00:54:23;1.80;;;1.70;;
17614;SDS011;8926;49.720;6.576;2023-08-17T00:56:49;1.77;;;1.67;;
17614;SDS011;8926;49.720;6.576;2023-08-17T00:59:15;1.60;;;1.60;;
17614;SDS011;8926;49.720;6.576;2023-08-17T01:01:40;1.93;;;1.83;;
17614;SDS011;8926;49.720;6.576;2023-08-17T01:04:05;2.57;;;2.47;;
17614;SDS011;8926;49.720;6.576;2023-08-17T01:06:31;2.10;;;2.00;;
17614;SDS011;8926;49.720;6.576;2023-08-17T01:08:56;1.90;;;1.80;;
17614;SDS011;8926;49.720;6.576;2023-08-17T01:11:24;1.60;;;1.50;;
17614;SDS011;8926;49.720;6.576;2023-08-17T01:17:06;1.63;;;1.53;;
17614;SDS011;8926;49.720;6.576;2023-08-17T01:19:37;2.03;;;1.93;;
17614;SDS011;8926;49.720;6.576;2023-08-17T01:22:04;2.20;;;2.10;;
17614;SDS011;8926;49.720;6.576;2023-08-17T01:24:30;1.60;;;1.60;;
17614;SDS011;8926;49.720;6.576;2023-08-17T01:26:55;2.37;;;2.27;;
17614;SDS011;8926;49.720;6.576;2023-08-17T01:29:21;2.53;;;2.43;;
17614;SDS011;8926;49.720;6.576;2023-08-17T01:31:49;2.20;;;2.10;;
17614;SDS011;8926;49.720;6.576;2023-08-17T01:34:22;2.60;;;2.50;;
17614;SDS011;8926;49.720;6.576;2023-08-17T01:36:53;3.00;;;2.70;;
17614;SDS011;8926;49.720;6.576;2023-08-17T01:39:24;3.07;;;2.60;;
17614;SDS011;8926;49.720;6.576;2023-08-17T01:41:52;2.67;;;2.47;;
17614;SDS011;8926;49.720;6.576;2023-08-17T01:44:20;2.43;;;2.33;;
17614;SDS011;8926;49.720;6.576;2023-08-17T01:46:46;2.70;;;2.50;;
17614;SDS011;8926;49.720;6.576;2023-08-17T01:49:12;2.50;;;2.37;;
17614;SDS011;8926;49.720;6.576;2023-08-17T01:51:37;2.13;;;2.03;;
17614;SDS011;8926;49.720;6.576;2023-08-17T01:54:02;2.80;;;2.60;;
17614;SDS011;8926;49.720;6.576;2023-08-17T01:56:28;2.87;;;2.67;;
17614;SDS011;8926;49.720;6.576;2023-08-17T01:58:53;3.30;;;3.10;;
17614;SDS011;8926;49.720;6.576;2023-08-17T02:01:18;2.73;;;2.53;;
17614;SDS011;8926;49.720;6.576;2023-08-17T02:03:43;2.73;;;2.63;;
17614;SDS011;8926;49.720;6.576;2023-08-17T02:06:09;1.90;;;1.80;;
17614;SDS011;8926;49.720;6.576;2023-08-17T02:08:34;2.30;;;2.10;;
17614;SDS011;8926;49.720;6.576;2023-08-17T02:11:01;1.90;;;1.80;;
17614;SDS011;8926;49.720;6.576;2023-08-17T02:13:26;1.83;;;1.73;;
17614;SDS011;8926;49.720;6.576;2023-08-17T02:15:52;1.47;;;1.40;;
17614;SDS011;8926;49.720;6.576;2023-08-17T02:18:17;1.43;;;1.40;;
17614;SDS011;8926;49.720;6.576;2023-08-17T02:20:43;1.40;;;1.40;;
17614;SDS011;8926;49.720;6.576;2023-08-17T02:23:08;1.00;;;1.00;;
17614;SDS011;8926;49.720;6.576;2023-08-17T02:25:33;1.27;;;1.27;;
17614;SDS011;8926;49.720;6.576;2023-08-17T02:28:01;0.90;;;0.90;;
17614;SDS011;8926;49.720;6.576;2023-08-17T02:30:27;0.70;;;0.70;;
17614;SDS011;8926;49.720;6.576;2023-08-17T02:32:52;1.00;;;1.00;;
17614;SDS011;8926;49.720;6.576;2023-08-17T02:35:18;0.90;;;0.90;;
17614;SDS011;8926;49.720;6.576;2023-08-17T02:37:43;0.90;;;0.90;;
17614;SDS011;8926;49.720;6.576;2023-08-17T02:40:08;0.70;;;0.70;;
17614;SDS011;8926;49.720;6.576;2023-08-17T02:42:34;0.80;;;0.80;;
17614;SDS011;8926;49.720;6.576;2023-08-17T02:45:00;1.20;;;1.20;;
17614;SDS011;8926;49.720;6.576;2023-08-17T02:47:25;1.20;;;1.20;;
17614;SDS011;8926;49.720;6.576;2023-08-17T02:49:50;1.53;;;1.47;;
17614;SDS011;8926;49.720;6.576;2023-08-17T02:52:15;1.53;;;1.43;;
17614;SDS011;8926;49.720;6.576;2023-08-17T02:54:41;1.70;;;1.60;;
17614;SDS011;8926;49.720;6.576;2023-08-17T02:57:06;1.20;;;1.20;;
17614;SDS011;8926;49.720;6.576;2023-08-17T02:59:31;1.20;;;1.20;;
17614;SDS011;8926;49.720;6.576;2023-08-17T03:01:57;1.00;;;1.00;;
17614;SDS011;8926;49.720;6.576;2023-08-17T03:04:22;0.93;;;0.93;;
17614;SDS011;8926;49.720;6.576;2023-08-17T03:06:47;1.00;;;1.00;;
17614;SDS011;8926;49.720;6.576;2023-08-17T03:09:13;0.90;;;0.90;;
17614;SDS011;8926;49.720;6.576;2023-08-17T03:11:38;1.10;;;1.10;;
17614;SDS011;8926;49.720;6.576;2023-08-17T03:14:03;1.20;;;1.20;;
17614;SDS011;8926;49.720;6.576;2023-08-17T03:16:29;1.00;;;1.00;;
17614;SDS011;8926;49.720;6.576;2023-08-17T03:18:57;1.10;;;1.10;;
17614;SDS011;8926;49.720;6.576;2023-08-17T03:21:22;1.57;;;1.47;;
17614;SDS011;8926;49.720;6.576;2023-08-17T03:23:48;1.40;;;1.30;;
17614;SDS011;8926;49.720;6.576;2023-08-17T03:26:13;1.10;;;1.10;;
17614;SDS011;8926;49.720;6.576;2023-08-17T03:28:39;1.10;;;1.10;;
17614;SDS011;8926;49.720;6.576;2023-08-17T03:31:04;0.80;;;0.80;;
17614;SDS011;8926;49.720;6.576;2023-08-17T03:33:32;1.10;;;1.10;;
17614;SDS011;8926;49.720;6.576;2023-08-17T03:35:57;0.60;;;0.60;;
17614;SDS011;8926;49.720;6.576;2023-08-17T03:38:22;1.00;;;1.00;;
17614;SDS011;8926;49.720;6.576;2023-08-17T03:40:48;1.07;;;1.07;;
17614;SDS011;8926;49.720;6.576;2023-08-17T03:43:13;1.10;;;1.10;;
17614;SDS011;8926;49.720;6.576;2023-08-17T03:45:40;1.33;;;1.30;;
17614;SDS011;8926;49.720;6.576;2023-08-17T03:48:06;1.30;;;1.30;;
17614;SDS011;8926;49.720;6.576;2023-08-17T03:50:32;1.73;;;1.60;;
17614;SDS011;8926;49.720;6.576;2023-08-17T03:52:57;1.10;;;1.10;;
17614;SDS011;8926;49.720;6.576;2023-08-17T03:55:22;1.07;;;1.07;;
17614;SDS011;8926;49.720;6.576;2023-08-17T03:57:47;0.73;;;0.73;;
17614;SDS011;8926;49.720;6.576;2023-08-17T04:00:13;1.00;;;1.00;;
17614;SDS011;8926;49.720;6.576;2023-08-17T04:02:38;0.90;;;0.90;;
17614;SDS011;8926;49.720;6.576;2023-08-17T04:05:04;0.90;;;0.90;;
17614;SDS011;8926;49.720;6.576;2023-08-17T04:07:29;0.80;;;0.80;;
17614;SDS011;8926;49.720;6.576;2023-08-17T04:09:55;1.00;;;1.00;;
17614;SDS011;8926;49.720;6.576;2023-08-17T04:12:20;0.70;;;0.70;;
17614;SDS011;8926;49.720;6.576;2023-08-17T04:14:45;0.87;;;0.87;;
17614;SDS011;8926;49.720;6.576;2023-08-17T04:17:11;0.93;;;0.93;;
17614;SDS011;8926;49.720;6.576;2023-08-17T04:19:36;1.50;;;1.23;;
17614;SDS011;8926;49.720;6.576;2023-08-17T04:22:02;1.30;;;1.30;;
17614;SDS011;8926;49.720;6.576;2023-08-17T04:24:27;1.00;;;1.00;;
17614;SDS011;8926;49.720;6.576;2023-08-17T04:26:54;1.13;;;1.10;;
17614;SDS011;8926;49.720;6.576;2023-08-17T04:29:19;0.90;;;0.90;;
17614;SDS011;8926;49.720;6.576;2023-08-17T04:31:44;0.97;;;0.97;;
17614;SDS011;8926;49.720;6.576;2023-08-17T04:34:10;0.80;;;0.80;;
17614;SDS011;8926;49.720;6.576;2023-08-17T04:36:36;0.90;;;0.90;;
17614;SDS011;8926;49.720;6.576;2023-08-17T04:39:01;0.90;;;0.90;;
17614;SDS011;8926;49.720;6.576;2023-08-17T04:41:26;0.70;;;0.70;;
17614;SDS011;8926;49.720;6.576;2023-08-17T04:43:51;0.80;;;0.80;;
17614;SDS011;8926;49.720;6.576;2023-08-17T04:46:17;0.70;;;0.70;;
17614;SDS011;8926;49.720;6.576;2023-08-17T04:48:42;1.00;;;1.00;;
17614;SDS011;8926;49.720;6.576;2023-08-17T04:51:07;0.60;;;0.60;;
17614;SDS011;8926;49.720;6.576;2023-08-17T04:53:33;0.67;;;0.67;;
17614;SDS011;8926;49.720;6.576;2023-08-17T04:55:58;0.80;;;0.80;;
17614;SDS011;8926;49.720;6.576;2023-08-17T04:58:24;1.10;;;1.10;;
17614;SDS011;8926;49.720;6.576;2023-08-17T05:00:49;0.90;;;0.90;;
17614;SDS011;8926;49.720;6.576;2023-08-17T05:03:16;1.03;;;0.93;;
17614;SDS011;8926;49.720;6.576;2023-08-17T05:05:41;1.10;;;1.10;;
17614;SDS011;8926;49.720;6.576;2023-08-17T05:08:07;0.90;;;0.90;;
17614;SDS011;8926;49.720;6.576;2023-08-17T05:10:32;0.90;;;0.90;;
17614;SDS011;8926;49.720;6.576;2023-08-17T05:12:57;0.90;;;0.83;;
17614;SDS011;8926;49.720;6.576;2023-08-17T05:15:22;0.77;;;0.77;;
17614;SDS011;8926;49.720;6.576;2023-08-17T05:17:48;0.80;;;0.80;;
17614;SDS011;8926;49.720;6.576;2023-08-17T05:20:13;0.70;;;0.70;;
17614;SDS011;8926;49.720;6.576;2023-08-17T05:22:38;0.80;;;0.80;;
17614;SDS011;8926;49.720;6.576;2023-08-17T05:25:04;1.00;;;1.00;;
17614;SDS011;8926;49.720;6.576;2023-08-17T05:27:29;0.90;;;0.90;;
17614;SDS011;8926;49.720;6.576;2023-08-17T05:29:55;1.43;;;1.33;;
17614;SDS011;8926;49.720;6.576;2023-08-17T05:32:20;1.00;;;1.00;;
17614;SDS011;8926;49.720;6.576;2023-08-17T05:34:46;1.10;;;1.10;;
17614;SDS011;8926;49.720;6.576;2023-08-17T05:37:12;1.00;;;1.00;;
17614;SDS011;8926;49.720;6.576;2023-08-17T05:39:39;1.27;;;1.20;;
17614;SDS011;8926;49.720;6.576;2023-08-17T05:42:05;1.30;;;1.20;;
17614;SDS011;8926;49.720;6.576;2023-08-17T05:44:31;1.90;;;1.80;;
17614;SDS011;8926;49.720;6.576;2023-08-17T05:46:56;1.70;;;1.60;;
17614;SDS011;8926;49.720;6.576;2023-08-17T05:49:22;2.43;;;2.23;;
17614;SDS011;8926;49.720;6.576;2023-08-17T05:51:47;1.90;;;1.80;;
17614;SDS011;8926;49.720;6.576;2023-08-17T05:54:12;2.90;;;2.70;;
17614;SDS011;8926;49.720;6.576;2023-08-17T05:56:38;2.23;;;2.07;;
17614;SDS011;8926;49.720;6.576;2023-08-17T05:59:09;2.10;;;2.00;;
17614;SDS011;8926;49.720;6.576;2023-08-17T06:01:35;2.23;;;2.10;;
17614;SDS011;8926;49.720;6.576;2023-08-17T06:04:01;2.10;;;2.00;;
17614;SDS011;8926;49.720;6.576;2023-08-17T06:06:26;2.20;;;2.10;;
17614;SDS011;8926;49.720;6.576;2023-08-17T06:08:51;2.13;;;2.00;;
17614;SDS011;8926;49.720;6.576;2023-08-17T06:11:17;1.43;;;1.33;;
17614;SDS011;8926;49.720;6.576;2023-08-17T06:13:42;1.80;;;1.70;;
17614;SDS011;8926;49.720;6.576;2023-08-17T06:16:07;1.40;;;1.30;;
17614;SDS011;8926;49.720;6.576;2023-08-17T06:18:32;1.20;;;1.20;;
17614;SDS011;8926;49.720;6.576;2023-08-17T06:20:58;0.87;;;0.87;;
17614;SDS011;8926;49.720;6.576;2023-08-17T06:23:23;0.83;;;0.83;;
17614;SDS011;8926;49.720;6.576;2023-08-17T06:25:49;1.10;;;1.07;;
17614;SDS011;8926;49.720;6.576;2023-08-17T06:28:14;1.10;;;1.10;;
17614;SDS011;8926;49.720;6.576;2023-08-17T06:30:39;0.83;;;0.83;;
17614;SDS011;8926;49.720;6.576;2023-08-17T06:33:05;0.90;;;0.90;;
17614;SDS011;8926;49.720;6.576;2023-08-17T06:35:30;0.80;;;0.80;;
17614;SDS011;8926;49.720;6.576;2023-08-17T06:37:55;1.03;;;1.03;;
17614;SDS011;8926;49.720;6.576;2023-08-17T06:40:22;1.00;;;1.00;;
17614;SDS011;8926;49.720;6.576;2023-08-17T06:42:48;1.43;;;1.33;;
17614;SDS011;8926;49.720;6.576;2023-08-17T06:45:13;1.20;;;1.20;;
17614;SDS011;8926;49.720;6.576;2023-08-17T06:47:43;1.10;;;1.10;;
17614;SDS011;8926;49.720;6.576;2023-08-17T06:50:10;0.90;;;0.90;;
17614;SDS011;8926;49.720;6.576;2023-08-17T06:52:35;0.90;;;0.90;;
17614;SDS011;8926;49.720;6.576;2023-08-17T06:55:01;0.90;;;0.90;;
17614;SDS011;8926;49.720;6.576;2023-08-17T06:57:26;0.80;;;0.80;;
17614;SDS011;8926;49.720;6.576;2023-08-17T06:59:51;0.97;;;0.97;;
17614;SDS011;8926;49.720;6.576;2023-08-17T07:02:17;0.90;;;0.90;;
17614;SDS011;8926;49.720;6.576;2023-08-17T07:04:43;1.00;;;1.00;;
17614;SDS011;8926;49.720;6.576;2023-08-17T07:07:08;1.10;;;1.10;;
17614;SDS011;8926;49.720;6.576;2023-08-17T07:09:33;1.20;;;1.20;;
17614;SDS011;8926;49.720;6.576;2023-08-17T07:11:59;1.60;;;1.50;;
17614;SDS011;8926;49.720;6.576;2023-08-17T07:14:24;2.27;;;2.07;;
17614;SDS011;8926;49.720;6.576;2023-08-17T07:16:50;1.57;;;1.50;;
17614;SDS011;8926;49.720;6.576;2023-08-17T07:19:15;1.77;;;1.67;;
17614;SDS011;8926;49.720;6.576;2023-08-17T07:21:40;1.80;;;1.70;;
17614;SDS011;8926;49.720;6.576;2023-08-17T07:24:12;2.07;;;1.97;;
17614;SDS011;8926;49.720;6.576;2023-08-17T07:26:39;2.20;;;2.10;;
17614;SDS011;8926;49.720;6.576;2023-08-17T07:29:04;1.80;;;1.70;;
17614;SDS011;8926;49.720;6.576;2023-08-17T07:31:29;1.80;;;1.70;;
17614;SDS011;8926;49.720;6.576;2023-08-17T07:33:55;2.30;;;2.20;;
17614;SDS011;8926;49.720;6.576;2023-08-17T07:36:20;3.73;;;3.50;;
17614;SDS011;8926;49.720;6.576;2023-08-17T07:38:46;3.70;;;3.50;;
17614;SDS011;8926;49.720;6.576;2023-08-17T07:41:11;3.17;;;2.97;;
17614;SDS011;8926;49.720;6.576;2023-08-17T07:43:36;3.83;;;3.63;;
17614;SDS011;8926;49.720;6.576;2023-08-17T07:46:02;4.23;;;4.03;;
17614;SDS011;8926;49.720;6.576;2023-08-17T07:48:27;3.40;;;3.20;;
17614;SDS011;8926;49.720;6.576;2023-08-17T07:50:53;3.93;;;3.67;;
17614;SDS011;8926;49.720;6.576;2023-08-17T07:53:18;3.60;;;3.40;;
17614;SDS011;8926;49.720;6.576;2023-08-17T07:55:44;4.60;;;4.30;;
17614;SDS011;8926;49.720;6.576;2023-08-17T07:58:10;4.57;;;4.37;;
17614;SDS011;8926;49.720;6.576;2023-08-17T08:00:36;4.07;;;3.87;;
17614;SDS011;8926;49.720;6.576;2023-08-17T08:03:01;3.70;;;3.50;;
17614;SDS011;8926;49.720;6.576;2023-08-17T08:05:27;3.93;;;3.73;;
17614;SDS011;8926;49.720;6.576;2023-08-17T08:07:52;4.07;;;3.80;;
17614;SDS011;8926;49.720;6.576;2023-08-17T08:10:18;4.00;;;3.70;;
17614;SDS011;8926;49.720;6.576;2023-08-17T08:12:44;2.50;;;2.40;;
17614;SDS011;8926;49.720;6.576;2023-08-17T08:15:09;3.30;;;3.17;;
17614;SDS011;8926;49.720;6.576;2023-08-17T08:17:35;2.77;;;2.60;;
17614;SDS011;8926;49.720;6.576;2023-08-17T08:20:00;3.43;;;3.23;;
17614;SDS011;8926;49.720;6.576;2023-08-17T08:22:26;2.57;;;2.47;;
17614;SDS011;8926;49.720;6.576;2023-08-17T08:24:51;3.40;;;3.20;;
17614;SDS011;8926;49.720;6.576;2023-08-17T08:27:16;3.50;;;3.30;;
17614;SDS011;8926;49.720;6.576;2023-08-17T08:29:41;3.60;;;3.40;;
17614;SDS011;8926;49.720;6.576;2023-08-17T08:32:07;2.77;;;2.57;;
17614;SDS011;8926;49.720;6.576;2023-08-17T08:34:32;3.10;;;2.90;;
17614;SDS011;8926;49.720;6.576;2023-08-17T08:36:57;3.17;;;2.97;;
17614;SDS011;8926;49.720;6.576;2023-08-17T08:39:24;2.83;;;2.73;;
17614;SDS011;8926;49.720;6.576;2023-08-17T08:41:50;3.10;;;2.90;;
17614;SDS011;8926;49.720;6.576;2023-08-17T08:44:16;3.33;;;3.13;;
17614;SDS011;8926;49.720;6.576;2023-08-17T08:46:41;3.50;;;3.37;;
17614;SDS011;8926;49.720;6.576;2023-08-17T08:49:10;3.70;;;3.50;;
17614;SDS011;8926;49.720;6.576;2023-08-17T08:51:36;3.60;;;3.40;;
17614;SDS011;8926;49.720;6.576;2023-08-17T08:54:06;3.80;;;3.53;;
17614;SDS011;8926;49.720;6.576;2023-08-17T08:56:37;2.80;;;2.70;;
17614;SDS011;8926;49.720;6.576;2023-08-17T08:59:06;3.13;;;2.93;;
17614;SDS011;8926;49.720;6.576;2023-08-17T09:01:33;3.30;;;3.10;;
17614;SDS011;8926;49.720;6.576;2023-08-17T09:03:59;2.80;;;2.70;;
17614;SDS011;8926;49.720;6.576;2023-08-17T09:06:29;2.70;;;2.60;;
17614;SDS011;8926;49.720;6.576;2023-08-17T09:08:56;2.97;;;2.87;;
17614;SDS011;8926;49.720;6.576;2023-08-17T09:11:22;3.03;;;2.90;;
17614;SDS011;8926;49.720;6.576;2023-08-17T09:13:48;3.20;;;3.00;;
17614;SDS011;8926;49.720;6.576;2023-08-17T09:16:13;4.20;;;4.00;;
17614;SDS011;8926;49.720;6.576;2023-08-17T09:18:38;3.20;;;3.00;;
17614;SDS011;8926;49.720;6.576;2023-08-17T09:21:04;3.20;;;3.00;;
17614;SDS011;8926;49.720;6.576;2023-08-17T09:23:29;3.37;;;3.17;;
17614;SDS011;8926;49.720;6.576;2023-08-17T09:25:55;3.80;;;3.60;;
17614;SDS011;8926;49.720;6.576;2023-08-17T09:28:23;3.33;;;3.13;;
17614;SDS011;8926;49.720;6.576;2023-08-17T09:30:59;3.23;;;3.03;;
17614;SDS011;8926;49.720;6.576;2023-08-17T09:33:26;2.70;;;2.60;;
17614;SDS011;8926;49.720;6.576;2023-08-17T09:35:53;2.70;;;2.60;;
17614;SDS011;8926;49.720;6.576;2023-08-17T09:38:20;3.00;;;2.80;;
17614;SDS011;8926;49.720;6.576;2023-08-17T09:40:45;2.60;;;2.50;;
17614;SDS011;8926;49.720;6.576;2023-08-17T09:43:12;2.20;;;2.10;;
17614;SDS011;8926;49.720;6.576;2023-08-17T09:45:39;2.50;;;2.40;;
17614;SDS011;8926;49.720;6.576;2023-08-17T09:48:07;2.90;;;2.70;;
17614;SDS011;8926;49.720;6.576;2023-08-17T09:50:33;2.90;;;2.70;;
17614;SDS011;8926;49.720;6.576;2023-08-17T09:53:01;3.10;;;2.93;;
17614;SDS011;8926;49.720;6.576;2023-08-17T09:55:27;2.83;;;2.70;;
17614;SDS011;8926;49.720;6.576;2023-08-17T09:57:52;3.00;;;2.80;;
17614;SDS011;8926;49.720;6.576;2023-08-17T10:00:19;2.77;;;2.57;;
17614;SDS011;8926;49.720;6.576;2023-08-17T10:02:45;4.60;;;3.00;;
17614;SDS011;8926;49.720;6.576;2023-08-17T10:05:13;2.80;;;2.70;;
17614;SDS011;8926;49.720;6.576;2023-08-17T10:07:43;2.80;;;2.67;;
17614;SDS011;8926;49.720;6.576;2023-08-17T10:10:11;2.53;;;2.43;;
17614;SDS011;8926;49.720;6.576;2023-08-17T10:12:37;2.73;;;2.63;;
17614;SDS011;8926;49.720;6.576;2023-08-17T10:15:14;2.53;;;2.43;;
17614;SDS011;8926;49.720;6.576;2023-08-17T10:17:44;3.30;;;3.00;;
17614;SDS011;8926;49.720;6.576;2023-08-17T10:20:13;2.30;;;2.20;;
17614;SDS011;8926;49.720;6.576;2023-08-17T10:22:39;2.50;;;2.40;;
17614;SDS011;8926;49.720;6.576;2023-08-17T10:25:14;2.30;;;2.20;;
17614;SDS011;8926;49.720;6.576;2023-08-17T10:27:40;2.43;;;2.33;;
17614;SDS011;8926;49.720;6.576;2023-08-17T10:30:08;2.77;;;2.67;;
17614;SDS011;8926;49.720;6.576;2023-08-17T10:32:35;2.53;;;2.43;;
17614;SDS011;8926;49.720;6.576;2023-08-17T10:35:00;2.50;;;2.40;;
17614;SDS011;8926;49.720;6.576;2023-08-17T10:37:28;2.40;;;2.30;;
17614;SDS011;8926;49.720;6.576;2023-08-17T10:39:54;2.27;;;2.17;;
17614;SDS011;8926;49.720;6.576;2023-08-17T10:42:32;2.33;;;2.23;;
17614;SDS011;8926;49.720;6.576;2023-08-17T10:44:59;2.20;;;2.10;;
17614;SDS011;8926;49.720;6.576;2023-08-17T10:47:27;2.20;;;2.10;;
17614;SDS011;8926;49.720;6.576;2023-08-17T10:50:06;2.37;;;2.27;;
17614;SDS011;8926;49.720;6.576;2023-08-17T10:52:47;2.60;;;2.50;;
17614;SDS011;8926;49.720;6.576;2023-08-17T10:55:14;2.30;;;2.20;;
17614;SDS011;8926;49.720;6.576;2023-08-17T10:57:43;2.37;;;2.27;;
17614;SDS011;8926;49.720;6.576;2023-08-17T11:00:19;2.03;;;1.93;;
17614;SDS011;8926;49.720;6.576;2023-08-17T11:03:00;2.60;;;2.40;;
17614;SDS011;8926;49.720;6.576;2023-08-17T11:05:43;2.50;;;2.40;;
17614;SDS011;8926;49.720;6.576;2023-08-17T11:08:27;2.50;;;2.40;;
17614;SDS011;8926;49.720;6.576;2023-08-17T11:11:13;2.77;;;2.67;;
17614;SDS011;8926;49.720;6.576;2023-08-17T11:13:39;2.70;;;2.60;;
17614;SDS011;8926;49.720;6.576;2023-08-17T11:16:06;2.13;;;2.03;;
17614;SDS011;8926;49.720;6.576;2023-08-17T11:18:34;2.10;;;2.00;;
17614;SDS011;8926;49.720;6.576;2023-08-17T11:21:00;2.10;;;2.00;;
17614;SDS011;8926;49.720;6.576;2023-08-17T11:23:28;2.33;;;2.23;;
17614;SDS011;8926;49.720;6.576;2023-08-17T11:25:54;2.30;;;2.20;;
17614;SDS011;8926;49.720;6.576;2023-08-17T11:28:20;2.60;;;2.50;;
17614;SDS011;8926;49.720;6.576;2023-08-17T11:30:55;2.20;;;2.10;;
17614;SDS011;8926;49.720;6.576;2023-08-17T11:33:21;2.50;;;2.40;;
17614;SDS011;8926;49.720;6.576;2023-08-17T11:35:47;2.10;;;2.00;;
17614;SDS011;8926;49.720;6.576;2023-08-17T11:38:14;2.30;;;2.20;;
17614;SDS011;8926;49.720;6.576;2023-08-17T11:40:40;2.10;;;2.00;;
17614;SDS011;8926;49.720;6.576;2023-08-17T11:43:05;2.33;;;2.23;;
17614;SDS011;8926;49.720;6.576;2023-08-17T11:45:30;2.40;;;2.30;;
17614;SDS011;8926;49.720;6.576;2023-08-17T11:47:57;2.47;;;2.37;;
17614;SDS011;8926;49.720;6.576;2023-08-17T11:50:24;2.70;;;2.60;;
17614;SDS011;8926;49.720;6.576;2023-08-17T11:52:49;2.30;;;2.20;;
17614;SDS011;8926;49.720;6.576;2023-08-17T11:55:15;2.57;;;2.37;;
17614;SDS011;8926;49.720;6.576;2023-08-17T11:57:43;2.07;;;1.97;;
17614;SDS011;8926;49.720;6.576;2023-08-17T12:00:08;2.90;;;2.80;;
17614;SDS011;8926;49.720;6.576;2023-08-17T12:02:35;3.73;;;3.50;;
17614;SDS011;8926;49.720;6.576;2023-08-17T12:05:02;2.93;;;2.80;;
17614;SDS011;8926;49.720;6.576;2023-08-17T12:07:31;2.93;;;2.83;;
17614;SDS011;8926;49.720;6.576;2023-08-17T12:09:56;2.60;;;2.50;;
17614;SDS011;8926;49.720;6.576;2023-08-17T12:12:22;2.83;;;2.73;;
17614;SDS011;8926;49.720;6.576;2023-08-17T12:14:48;2.73;;;2.60;;
17614;SDS011;8926;49.720;6.576;2023-08-17T12:17:14;2.30;;;2.20;;
17614;SDS011;8926;49.720;6.576;2023-08-17T12:19:41;2.80;;;2.70;;
17614;SDS011;8926;49.720;6.576;2023-08-17T12:22:06;2.73;;;2.53;;
17614;SDS011;8926;49.720;6.576;2023-08-17T12:24:32;3.00;;;2.80;;
17614;SDS011;8926;49.720;6.576;2023-08-17T12:26:58;3.10;;;2.90;;
17614;SDS011;8926;49.720;6.576;2023-08-17T12:29:24;3.30;;;3.10;;
17614;SDS011;8926;49.720;6.576;2023-08-17T12:31:51;2.83;;;2.73;;
17614;SDS011;8926;49.720;6.576;2023-08-17T12:34:17;2.70;;;2.60;;
17614;SDS011;8926;49.720;6.576;2023-08-17T12:36:42;2.57;;;2.47;;
17614;SDS011;8926;49.720;6.576;2023-08-17T12:39:08;2.30;;;2.20;;
17614;SDS011;8926;49.720;6.576;2023-08-17T12:41:34;2.10;;;2.00;;
17614;SDS011;8926;49.720;6.576;2023-08-17T12:43:59;2.00;;;1.90;;
17614;SDS011;8926;49.720;6.576;2023-08-17T12:46:26;2.67;;;2.47;;
17614;SDS011;8926;49.720;6.576;2023-08-17T12:48:51;2.40;;;2.30;;
17614;SDS011;8926;49.720;6.576;2023-08-17T12:51:16;2.17;;;2.07;;
17614;SDS011;8926;49.720;6.576;2023-08-17T12:53:42;2.67;;;2.57;;
17614;SDS011;8926;49.720;6.576;2023-08-17T12:56:07;2.20;;;2.10;;
17614;SDS011;8926;49.720;6.576;2023-08-17T12:58:33;1.87;;;1.83;;
17614;SDS011;8926;49.720;6.576;2023-08-17T13:00:58;2.20;;;2.10;;
17614;SDS011;8926;49.720;6.576;2023-08-17T13:03:23;2.20;;;2.10;;
17614;SDS011;8926;49.720;6.576;2023-08-17T13:05:49;2.33;;;2.23;;
17614;SDS011;8926;49.720;6.576;2023-08-17T13:08:14;2.33;;;2.23;;
17614;SDS011;8926;49.720;6.576;2023-08-17T13:10:40;2.23;;;2.13;;
17614;SDS011;8926;49.720;6.576;2023-08-17T13:13:06;2.00;;;1.90;;
17614;SDS011;8926;49.720;6.576;2023-08-17T13:15:32;1.80;;;1.70;;
17614;SDS011;8926;49.720;6.576;2023-08-17T13:17:58;2.00;;;1.90;;
17614;SDS011;8926;49.720;6.576;2023-08-17T13:20:24;1.97;;;1.87;;
17614;SDS011;8926;49.720;6.576;2023-08-17T13:22:49;1.60;;;1.50;;
17614;SDS011;8926;49.720;6.576;2023-08-17T13:25:15;1.73;;;1.73;;
17614;SDS011;8926;49.720;6.576;2023-08-17T13:27:40;1.80;;;1.80;;
17614;SDS011;8926;49.720;6.576;2023-08-17T13:30:06;2.50;;;2.40;;
17614;SDS011;8926;49.720;6.576;2023-08-17T13:32:31;2.30;;;2.20;;
17614;SDS011;8926;49.720;6.576;2023-08-17T13:34:57;2.33;;;2.23;;
17614;SDS011;8926;49.720;6.576;2023-08-17T13:37:22;2.03;;;1.97;;
17614;SDS011;8926;49.720;6.576;2023-08-17T13:39:48;2.27;;;2.07;;
17614;SDS011;8926;49.720;6.576;2023-08-17T13:42:13;2.00;;;1.90;;
17614;SDS011;8926;49.720;6.576;2023-08-17T13:44:39;2.10;;;2.00;;
17614;SDS011;8926;49.720;6.576;2023-08-17T13:47:04;2.00;;;1.90;;
17614;SDS011;8926;49.720;6.576;2023-08-17T13:49:29;2.10;;;2.00;;
17614;SDS011;8926;49.720;6.576;2023-08-17T13:51:55;1.90;;;1.80;;
17614;SDS011;8926;49.720;6.576;2023-08-17T13:54:23;1.97;;;1.87;;
17614;SDS011;8926;49.720;6.576;2023-08-17T13:56:49;1.87;;;1.77;;
17614;SDS011;8926;49.720;6.576;2023-08-17T13:59:14;2.27;;;2.17;;
17614;SDS011;8926;49.720;6.576;2023-08-17T14:01:39;2.50;;;2.40;;
17614;SDS011;8926;49.720;6.576;2023-08-17T14:04:05;2.80;;;2.60;;
17614;SDS011;8926;49.720;6.576;2023-08-17T14:06:36;2.60;;;2.50;;
17614;SDS011;8926;49.720;6.576;2023-08-17T14:09:02;2.10;;;2.00;;
17614;SDS011;8926;49.720;6.576;2023-08-17T14:11:27;2.30;;;2.20;;
17614;SDS011;8926;49.720;6.576;2023-08-17T14:13:53;2.70;;;2.60;;
17614;SDS011;8926;49.720;6.576;2023-08-17T14:16:18;2.40;;;2.30;;
17614;SDS011;8926;49.720;6.576;2023-08-17T14:18:43;2.00;;;1.90;;
17614;SDS011;8926;49.720;6.576;2023-08-17T14:21:08;2.17;;;2.07;;
17614;SDS011;8926;49.720;6.576;2023-08-17T14:23:34;2.60;;;2.50;;
17614;SDS011;8926;49.720;6.576;2023-08-17T14:25:59;2.40;;;2.30;;
17614;SDS011;8926;49.720;6.576;2023-08-17T14:28:24;1.83;;;1.73;;
17614;SDS011;8926;49.720;6.576;2023-08-17T14:30:51;1.83;;;1.80;;
17614;SDS011;8926;49.720;6.576;2023-08-17T14:33:16;2.20;;;2.10;;
17614;SDS011;8926;49.720;6.576;2023-08-17T14:35:41;2.23;;;2.13;;
17614;SDS011;8926;49.720;6.576;2023-08-17T14:38:07;2.37;;;2.23;;
17614;SDS011;8926;49.720;6.576;2023-08-17T14:40:34;2.40;;;2.30;;
17614;SDS011;8926;49.720;6.576;2023-08-17T14:43:00;1.90;;;1.80;;
17614;SDS011;8926;49.720;6.576;2023-08-17T14:45:25;2.33;;;2.23;;
17614;SDS011;8926;49.720;6.576;2023-08-17T14:47:50;2.23;;;2.13;;
17614;SDS011;8926;49.720;6.576;2023-08-17T14:50:16;1.80;;;1.73;;
17614;SDS011;8926;49.720;6.576;2023-08-17T14:52:41;1.73;;;1.63;;
17614;SDS011;8926;49.720;6.576;2023-08-17T14:55:06;1.50;;;1.50;;
17614;SDS011;8926;49.720;6.576;2023-08-17T14:57:32;1.70;;;1.60;;